sensor_id;sensor_type;location;lat;lon;timestamp;temperature;humidity
1049;DHT22;513;51.444;7.196;2023-03-01T00:02:17;-1.10;1.00
1049;DHT22;513;51.444;7.196;2023-03-01T00:04:44;-0.90;1.00
1049;DHT22;513;51.444;7.196;2023-03-01T00:07:10;-0.90;1.00
1049;DHT22;513;51.444;7.196;2023-03-01T00:09:37;-1.10;1.00
1049;DHT22;513;51.444;7.196;2023-03-01T00:12:06;-1.20;1.00
1049;DHT22;513;51.444;7.196;2023-03-01T00:14:32;-1.20;1.00
1049;DHT22;513;51.444;7.196;2023-03-01T00:16:59;-1.20;1.00
1049;DHT22;513;51.444;7.196;2023-03-01T00:19:27;-1.20;1.00
1049;DHT22;513;51.444;7.196;2023-03-01T00:21:54;-1.20;1.00
1049;DHT22;513;51.444;7.196;2023-03-01T00:24:20;-1.20;1.00
1049;DHT22;513;51.444;7.196;2023-03-01T00:26:47;-1.30;1.00
1049;DHT22;513;51.444;7.196;2023-03-01T00:29:15;-1.30;1.00
1049;DHT22;513;51.444;7.196;2023-03-01T00:31:41;-1.30;1.00
1049;DHT22;513;51.444;7.196;2023-03-01T00:34:09;-1.20;1.00
1049;DHT22;513;51.444;7.196;2023-03-01T00:36:37;-1.30;1.00
1049;DHT22;513;51.444;7.196;2023-03-01T00:39:05;-1.30;1.00
1049;DHT22;513;51.444;7.196;2023-03-01T00:41:33;-1.30;1.00
1049;DHT22;513;51.444;7.196;2023-03-01T00:44:00;-1.30;1.00
1049;DHT22;513;51.444;7.196;2023-03-01T00:46:27;-1.40;1.00
1049;DHT22;513;51.444;7.196;2023-03-01T00:48:55;-1.30;1.00
1049;DHT22;513;51.444;7.196;2023-03-01T00:51:25;-1.40;1.00
1049;DHT22;513;51.444;7.196;2023-03-01T00:53:55;-1.40;1.00
1049;DHT22;513;51.444;7.196;2023-03-01T00:56:22;-1.40;1.00
1049;DHT22;513;51.444;7.196;2023-03-01T00:58:49;-1.50;1.00
1049;DHT22;513;51.444;7.196;2023-03-01T01:01:17;-1.50;1.00
1049;DHT22;513;51.444;7.196;2023-03-01T01:03:46;-1.40;1.00
1049;DHT22;513;51.444;7.196;2023-03-01T01:06:15;-1.40;1.00
1049;DHT22;513;51.444;7.196;2023-03-01T01:08:42;-1.40;1.00
1049;DHT22;513;51.444;7.196;2023-03-01T01:11:10;-1.50;1.00
1049;DHT22;513;51.444;7.196;2023-03-01T01:13:37;-1.60;1.00
1049;DHT22;513;51.444;7.196;2023-03-01T01:16:05;-1.60;1.00
1049;DHT22;513;51.444;7.196;2023-03-01T01:18:32;-1.50;1.00
1049;DHT22;513;51.444;7.196;2023-03-01T01:21:04;-1.60;1.00
1049;DHT22;513;51.444;7.196;2023-03-01T01:23:31;-1.60;1.00
1049;DHT22;513;51.444;7.196;2023-03-01T01:26:02;-1.60;1.00
1049;DHT22;513;51.444;7.196;2023-03-01T01:28:30;-1.50;1.00
1049;DHT22;513;51.444;7.196;2023-03-01T01:30:58;-1.60;1.00
1049;DHT22;513;51.444;7.196;2023-03-01T01:33:24;-1.70;1.00
1049;DHT22;513;51.444;7.196;2023-03-01T01:35:51;-1.80;1.00
1049;DHT22;513;51.444;7.196;2023-03-01T01:38:18;-1.80;1.00
1049;DHT22;513;51.444;7.196;2023-03-01T01:40:45;-1.80;1.00
1049;DHT22;513;51.444;7.196;2023-03-01T01:43:19;-1.90;1.00
1049;DHT22;513;51.444;7.196;2023-03-01T01:45:48;-2.00;1.00
1049;DHT22;513;51.444;7.196;2023-03-01T01:48:19;-2.00;1.00
1049;DHT22;513;51.444;7.196;2023-03-01T01:50:52;-2.00;1.00
1049;DHT22;513;51.444;7.196;2023-03-01T01:53:20;-2.00;1.00
1049;DHT22;513;51.444;7.196;2023-03-01T01:55:50;-2.10;1.00
1049;DHT22;513;51.444;7.196;2023-03-01T01:58:19;-2.10;1.00
1049;DHT22;513;51.444;7.196;2023-03-01T02:00:48;-2.20;1.00
1049;DHT22;513;51.444;7.196;2023-03-01T02:03:18;-2.20;1.00
1049;DHT22;513;51.444;7.196;2023-03-01T02:05:49;-2.20;1.00
1049;DHT22;513;51.444;7.196;2023-03-01T02:08:19;-2.20;1.00
1049;DHT22;513;51.444;7.196;2023-03-01T02:10:48;-2.10;1.00
1049;DHT22;513;51.444;7.196;2023-03-01T02:13:15;-2.00;1.00
1049;DHT22;513;51.444;7.196;2023-03-01T02:15:42;-1.90;1.00
1049;DHT22;513;51.444;7.196;2023-03-01T02:18:14;-2.10;1.00
1049;DHT22;513;51.444;7.196;2023-03-01T02:20:51;-2.10;1.00
1049;DHT22;513;51.444;7.196;2023-03-01T02:23:22;-1.90;1.00
1049;DHT22;513;51.444;7.196;2023-03-01T02:25:53;-2.10;1.00
1049;DHT22;513;51.444;7.196;2023-03-01T02:28:29;-2.20;1.00
1049;DHT22;513;51.444;7.196;2023-03-01T02:30:56;-2.20;1.00
1049;DHT22;513;51.444;7.196;2023-03-01T02:33:41;-2.20;1.00
1049;DHT22;513;51.444;7.196;2023-03-01T02:36:11;-2.30;1.00
1049;DHT22;513;51.444;7.196;2023-03-01T02:38:40;-2.30;1.00
1049;DHT22;513;51.444;7.196;2023-03-01T02:41:08;-2.30;1.00
1049;DHT22;513;51.444;7.196;2023-03-01T02:43:36;-2.20;1.00
1049;DHT22;513;51.444;7.196;2023-03-01T02:46:08;-2.10;1.00
1049;DHT22;513;51.444;7.196;2023-03-01T02:48:40;-2.10;1.00
1049;DHT22;513;51.444;7.196;2023-03-01T02:51:12;-1.90;1.00
1049;DHT22;513;51.444;7.196;2023-03-01T02:53:48;-1.80;1.00
1049;DHT22;513;51.444;7.196;2023-03-01T02:56:16;-1.80;1.00
1049;DHT22;513;51.444;7.196;2023-03-01T02:58:45;-2.10;1.00
1049;DHT22;513;51.444;7.196;2023-03-01T03:01:16;-2.20;1.00
1049;DHT22;513;51.444;7.196;2023-03-01T03:03:43;-2.30;1.00
1049;DHT22;513;51.444;7.196;2023-03-01T03:06:09;-2.40;1.00
1049;DHT22;513;51.444;7.196;2023-03-01T03:08:36;-2.50;1.00
1049;DHT22;513;51.444;7.196;2023-03-01T03:11:03;-2.50;3.30
1049;DHT22;513;51.444;7.196;2023-03-01T03:13:30;-2.50;9.00
1049;DHT22;513;51.444;7.196;2023-03-01T03:15:59;-2.50;13.20
1049;DHT22;513;51.444;7.196;2023-03-01T03:18:25;-2.50;15.60
1049;DHT22;513;51.444;7.196;2023-03-01T03:20:53;-2.60;18.90
1049;DHT22;513;51.444;7.196;2023-03-01T03:23:21;-2.50;19.60
1049;DHT22;513;51.444;7.196;2023-03-01T03:25:49;-2.50;17.50
1049;DHT22;513;51.444;7.196;2023-03-01T03:28:16;-2.60;20.80
1049;DHT22;513;51.444;7.196;2023-03-01T03:30:43;-2.60;22.10
1049;DHT22;513;51.444;7.196;2023-03-01T03:33:11;-2.60;21.30
1049;DHT22;513;51.444;7.196;2023-03-01T03:35:40;-2.60;19.70
1049;DHT22;513;51.444;7.196;2023-03-01T03:38:09;-2.70;21.80
1049;DHT22;513;51.444;7.196;2023-03-01T03:40:43;-2.70;24.30
1049;DHT22;513;51.444;7.196;2023-03-01T03:43:11;-2.70;28.60
1049;DHT22;513;51.444;7.196;2023-03-01T03:45:39;-2.70;27.60
1049;DHT22;513;51.444;7.196;2023-03-01T03:48:07;-2.80;28.00
1049;DHT22;513;51.444;7.196;2023-03-01T03:50:36;-2.70;30.10
1049;DHT22;513;51.444;7.196;2023-03-01T03:53:06;-2.70;29.30
1049;DHT22;513;51.444;7.196;2023-03-01T03:55:33;-2.70;30.00
1049;DHT22;513;51.444;7.196;2023-03-01T03:58:01;-2.60;30.80
1049;DHT22;513;51.444;7.196;2023-03-01T04:00:33;-2.40;28.40
1049;DHT22;513;51.444;7.196;2023-03-01T04:03:00;-2.60;22.80
1049;DHT22;513;51.444;7.196;2023-03-01T04:05:27;-2.80;26.30
1049;DHT22;513;51.444;7.196;2023-03-01T04:07:55;-2.80;29.60
1049;DHT22;513;51.444;7.196;2023-03-01T04:10:28;-2.80;32.80
1049;DHT22;513;51.444;7.196;2023-03-01T04:12:55;-2.80;35.60
1049;DHT22;513;51.444;7.196;2023-03-01T04:15:23;-2.60;33.50
1049;DHT22;513;51.444;7.196;2023-03-01T04:17:51;-2.70;27.90
1049;DHT22;513;51.444;7.196;2023-03-01T04:20:20;-2.70;28.90
1049;DHT22;513;51.444;7.196;2023-03-01T04:22:50;-2.50;26.70
1049;DHT22;513;51.444;7.196;2023-03-01T04:25:19;-2.70;22.10
1049;DHT22;513;51.444;7.196;2023-03-01T04:27:45;-2.80;25.60
1049;DHT22;513;51.444;7.196;2023-03-01T04:30:12;-2.80;28.70
1049;DHT22;513;51.444;7.196;2023-03-01T04:32:39;-2.70;29.10
1049;DHT22;513;51.444;7.196;2023-03-01T04:35:07;-2.50;24.90
1049;DHT22;513;51.444;7.196;2023-03-01T04:37:34;-2.70;19.60
1049;DHT22;513;51.444;7.196;2023-03-01T04:40:01;-2.80;22.10
1049;DHT22;513;51.444;7.196;2023-03-01T04:42:39;-2.90;26.90
1049;DHT22;513;51.444;7.196;2023-03-01T04:45:07;-3.00;34.20
1049;DHT22;513;51.444;7.196;2023-03-01T04:47:38;-3.00;39.90
1049;DHT22;513;51.444;7.196;2023-03-01T04:50:06;-3.10;44.00
1049;DHT22;513;51.444;7.196;2023-03-01T04:52:34;-3.00;45.80
1049;DHT22;513;51.444;7.196;2023-03-01T04:55:00;-3.00;45.60
1049;DHT22;513;51.444;7.196;2023-03-01T04:57:27;-3.00;45.80
1049;DHT22;513;51.444;7.196;2023-03-01T04:59:55;-3.00;46.30
1049;DHT22;513;51.444;7.196;2023-03-01T05:02:22;-3.10;44.40
1049;DHT22;513;51.444;7.196;2023-03-01T05:04:49;-3.10;45.50
1049;DHT22;513;51.444;7.196;2023-03-01T05:07:16;-3.10;47.50
1049;DHT22;513;51.444;7.196;2023-03-01T05:09:45;-3.10;49.30
1049;DHT22;513;51.444;7.196;2023-03-01T05:12:12;-3.20;50.60
1049;DHT22;513;51.444;7.196;2023-03-01T05:14:39;-3.20;54.10
1049;DHT22;513;51.444;7.196;2023-03-01T05:17:07;-3.20;56.70
1049;DHT22;513;51.444;7.196;2023-03-01T05:19:34;-3.20;56.70
1049;DHT22;513;51.444;7.196;2023-03-01T05:22:01;-3.20;56.00
1049;DHT22;513;51.444;7.196;2023-03-01T05:24:30;-3.20;55.90
1049;DHT22;513;51.444;7.196;2023-03-01T05:26:57;-3.20;56.30
1049;DHT22;513;51.444;7.196;2023-03-01T05:29:25;-3.20;55.50
1049;DHT22;513;51.444;7.196;2023-03-01T05:31:53;-3.20;56.10
1049;DHT22;513;51.444;7.196;2023-03-01T05:34:23;-3.10;57.90
1049;DHT22;513;51.444;7.196;2023-03-01T05:36:50;-3.00;52.60
1049;DHT22;513;51.444;7.196;2023-03-01T05:39:19;-2.80;47.50
1049;DHT22;513;51.444;7.196;2023-03-01T05:41:46;-2.90;39.40
1049;DHT22;513;51.444;7.196;2023-03-01T05:44:13;-3.10;36.00
1049;DHT22;513;51.444;7.196;2023-03-01T05:46:40;-3.10;41.50
1049;DHT22;513;51.444;7.196;2023-03-01T05:49:06;-3.20;46.80
1049;DHT22;513;51.444;7.196;2023-03-01T05:51:34;-3.20;52.20
1049;DHT22;513;51.444;7.196;2023-03-01T05:54:01;-3.20;55.50
1049;DHT22;513;51.444;7.196;2023-03-01T05:56:32;-3.20;55.60
1049;DHT22;513;51.444;7.196;2023-03-01T05:58:59;-3.20;56.10
1049;DHT22;513;51.444;7.196;2023-03-01T06:01:26;-3.10;54.20
1049;DHT22;513;51.444;7.196;2023-03-01T06:03:53;-3.10;48.90
1049;DHT22;513;51.444;7.196;2023-03-01T06:06:19;-3.20;48.10
1049;DHT22;513;51.444;7.196;2023-03-01T06:08:47;-3.30;52.70
1049;DHT22;513;51.444;7.196;2023-03-01T06:11:14;-3.30;60.20
1049;DHT22;513;51.444;7.196;2023-03-01T06:13:41;-3.30;62.20
1049;DHT22;513;51.444;7.196;2023-03-01T06:16:09;-3.30;63.80
1049;DHT22;513;51.444;7.196;2023-03-01T06:18:36;-3.30;65.00
1049;DHT22;513;51.444;7.196;2023-03-01T06:21:03;-3.30;67.20
1049;DHT22;513;51.444;7.196;2023-03-01T06:23:30;-3.20;67.30
1049;DHT22;513;51.444;7.196;2023-03-01T06:25:58;-3.10;65.90
1049;DHT22;513;51.444;7.196;2023-03-01T06:28:25;-3.20;63.60
1049;DHT22;513;51.444;7.196;2023-03-01T06:30:52;-3.20;63.50
1049;DHT22;513;51.444;7.196;2023-03-01T06:33:19;-3.10;59.60
1049;DHT22;513;51.444;7.196;2023-03-01T06:35:47;-3.20;58.20
1049;DHT22;513;51.444;7.196;2023-03-01T06:38:14;-3.20;61.00
1049;DHT22;513;51.444;7.196;2023-03-01T06:40:42;-3.20;66.20
1049;DHT22;513;51.444;7.196;2023-03-01T06:43:10;-3.10;61.00
1049;DHT22;513;51.444;7.196;2023-03-01T06:45:38;-3.20;59.60
1049;DHT22;513;51.444;7.196;2023-03-01T06:48:05;-3.10;61.90
1049;DHT22;513;51.444;7.196;2023-03-01T06:50:32;-3.10;62.40
1049;DHT22;513;51.444;7.196;2023-03-01T06:52:59;-3.10;58.90
1049;DHT22;513;51.444;7.196;2023-03-01T06:55:26;-3.00;56.90
1049;DHT22;513;51.444;7.196;2023-03-01T06:57:54;-2.90;57.30
1049;DHT22;513;51.444;7.196;2023-03-01T07:00:24;-2.90;52.00
1049;DHT22;513;51.444;7.196;2023-03-01T07:02:51;-2.90;48.60
1049;DHT22;513;51.444;7.196;2023-03-01T07:05:17;-2.80;51.20
1049;DHT22;513;51.444;7.196;2023-03-01T07:07:44;-2.80;48.80
1049;DHT22;513;51.444;7.196;2023-03-01T07:10:12;-2.50;49.50
1049;DHT22;513;51.444;7.196;2023-03-01T07:12:39;-2.50;43.80
1049;DHT22;513;51.444;7.196;2023-03-01T07:15:08;-2.60;32.40
1049;DHT22;513;51.444;7.196;2023-03-01T07:17:37;-2.70;31.10
1049;DHT22;513;51.444;7.196;2023-03-01T07:20:04;-2.60;34.10
1049;DHT22;513;51.444;7.196;2023-03-01T07:22:31;-2.50;35.00
1049;DHT22;513;51.444;7.196;2023-03-01T07:24:58;-2.40;31.70
1049;DHT22;513;51.444;7.196;2023-03-01T07:27:24;-2.20;28.20
1049;DHT22;513;51.444;7.196;2023-03-01T07:29:51;-2.20;19.60
1049;DHT22;513;51.444;7.196;2023-03-01T07:32:18;-2.20;15.70
1049;DHT22;513;51.444;7.196;2023-03-01T07:34:46;-2.20;19.10
1049;DHT22;513;51.444;7.196;2023-03-01T07:37:13;-2.10;15.80
1049;DHT22;513;51.444;7.196;2023-03-01T07:39:40;-2.00;9.70
1049;DHT22;513;51.444;7.196;2023-03-01T07:42:07;-1.90;1.00
1049;DHT22;513;51.444;7.196;2023-03-01T07:44:33;-2.00;1.00
1049;DHT22;513;51.444;7.196;2023-03-01T07:47:01;-1.90;1.00
1049;DHT22;513;51.444;7.196;2023-03-01T07:49:27;-1.80;1.00
1049;DHT22;513;51.444;7.196;2023-03-01T07:51:55;-1.70;1.00
1049;DHT22;513;51.444;7.196;2023-03-01T07:54:22;-1.60;1.00
1049;DHT22;513;51.444;7.196;2023-03-01T07:56:49;-1.60;1.00
1049;DHT22;513;51.444;7.196;2023-03-01T07:59:15;-1.50;1.00
1049;DHT22;513;51.444;7.196;2023-03-01T08:01:42;-1.50;1.00
1049;DHT22;513;51.444;7.196;2023-03-01T08:04:09;-1.40;1.00
1049;DHT22;513;51.444;7.196;2023-03-01T08:06:36;-1.20;1.00
1049;DHT22;513;51.444;7.196;2023-03-01T08:09:04;-1.20;1.00
1049;DHT22;513;51.444;7.196;2023-03-01T08:11:30;-1.10;1.00
1049;DHT22;513;51.444;7.196;2023-03-01T08:13:57;-1.00;1.00
1049;DHT22;513;51.444;7.196;2023-03-01T08:16:24;-1.00;1.00
1049;DHT22;513;51.444;7.196;2023-03-01T08:18:50;-0.90;1.00
1049;DHT22;513;51.444;7.196;2023-03-01T08:21:18;-0.70;1.00
1049;DHT22;513;51.444;7.196;2023-03-01T08:23:44;-0.60;1.00
1049;DHT22;513;51.444;7.196;2023-03-01T08:26:14;-0.50;1.00
1049;DHT22;513;51.444;7.196;2023-03-01T08:28:42;-0.30;99.90
1049;DHT22;513;51.444;7.196;2023-03-01T08:31:17;-0.20;99.90
1049;DHT22;513;51.444;7.196;2023-03-01T08:33:45;-0.10;99.90
1049;DHT22;513;51.444;7.196;2023-03-01T08:36:16;0.00;99.90
1049;DHT22;513;51.444;7.196;2023-03-01T08:38:43;0.10;99.90
1049;DHT22;513;51.444;7.196;2023-03-01T08:41:10;0.10;1.00
1049;DHT22;513;51.444;7.196;2023-03-01T08:43:38;0.30;1.00
1049;DHT22;513;51.444;7.196;2023-03-01T08:46:04;0.40;1.00
1049;DHT22;513;51.444;7.196;2023-03-01T08:48:31;0.60;99.90
1049;DHT22;513;51.444;7.196;2023-03-01T08:51:07;0.70;99.90
1049;DHT22;513;51.444;7.196;2023-03-01T08:53:33;0.80;1.00
1049;DHT22;513;51.444;7.196;2023-03-01T08:56:00;0.90;34.30
1049;DHT22;513;51.444;7.196;2023-03-01T08:58:27;0.90;99.90
1049;DHT22;513;51.444;7.196;2023-03-01T09:00:55;0.90;1.00
1049;DHT22;513;51.444;7.196;2023-03-01T09:03:23;0.90;99.90
1049;DHT22;513;51.444;7.196;2023-03-01T09:05:50;1.00;99.90
1049;DHT22;513;51.444;7.196;2023-03-01T09:08:23;1.20;1.00
1049;DHT22;513;51.444;7.196;2023-03-01T09:10:49;1.40;1.00
1049;DHT22;513;51.444;7.196;2023-03-01T09:13:16;1.40;1.00
1049;DHT22;513;51.444;7.196;2023-03-01T09:15:43;1.40;99.90
1049;DHT22;513;51.444;7.196;2023-03-01T09:18:11;1.50;99.90
1049;DHT22;513;51.444;7.196;2023-03-01T09:20:38;1.60;99.90
1049;DHT22;513;51.444;7.196;2023-03-01T09:23:05;1.70;99.90
1049;DHT22;513;51.444;7.196;2023-03-01T09:25:33;1.80;99.90
1049;DHT22;513;51.444;7.196;2023-03-01T09:28:00;2.00;1.00
1049;DHT22;513;51.444;7.196;2023-03-01T09:30:27;2.20;81.10
1049;DHT22;513;51.444;7.196;2023-03-01T09:32:54;2.30;99.90
1049;DHT22;513;51.444;7.196;2023-03-01T09:35:23;2.30;1.00
1049;DHT22;513;51.444;7.196;2023-03-01T09:37:51;2.30;1.00
1049;DHT22;513;51.444;7.196;2023-03-01T09:40:20;2.30;99.90
1049;DHT22;513;51.444;7.196;2023-03-01T09:42:52;2.40;99.90
1049;DHT22;513;51.444;7.196;2023-03-01T09:45:27;2.60;99.90
1049;DHT22;513;51.444;7.196;2023-03-01T09:47:55;2.80;70.90
1049;DHT22;513;51.444;7.196;2023-03-01T09:50:27;2.80;40.40
1049;DHT22;513;51.444;7.196;2023-03-01T09:53:01;2.90;1.00
1049;DHT22;513;51.444;7.196;2023-03-01T09:55:31;2.90;1.00
1049;DHT22;513;51.444;7.196;2023-03-01T09:58:04;2.90;1.00
1049;DHT22;513;51.444;7.196;2023-03-01T10:00:38;3.00;1.00
1049;DHT22;513;51.444;7.196;2023-03-01T10:03:13;2.90;1.00
1049;DHT22;513;51.444;7.196;2023-03-01T10:05:57;2.90;1.00
1049;DHT22;513;51.444;7.196;2023-03-01T10:08:29;3.10;1.00
1049;DHT22;513;51.444;7.196;2023-03-01T10:10:58;3.10;1.00
1049;DHT22;513;51.444;7.196;2023-03-01T10:13:29;3.10;1.00
1049;DHT22;513;51.444;7.196;2023-03-01T10:16:05;3.20;1.00
1049;DHT22;513;51.444;7.196;2023-03-01T10:18:33;3.30;99.90
1049;DHT22;513;51.444;7.196;2023-03-01T10:21:13;3.10;99.90
1049;DHT22;513;51.444;7.196;2023-03-01T10:23:40;3.10;99.90
1049;DHT22;513;51.444;7.196;2023-03-01T10:26:16;3.00;99.90
1049;DHT22;513;51.444;7.196;2023-03-01T10:28:55;3.20;99.90
1049;DHT22;513;51.444;7.196;2023-03-01T10:31:27;3.40;99.90
1049;DHT22;513;51.444;7.196;2023-03-01T10:34:02;3.60;99.90
1049;DHT22;513;51.444;7.196;2023-03-01T10:36:33;3.70;99.90
1049;DHT22;513;51.444;7.196;2023-03-01T10:39:11;3.90;99.90
1049;DHT22;513;51.444;7.196;2023-03-01T10:41:59;3.90;99.90
1049;DHT22;513;51.444;7.196;2023-03-01T10:44:43;3.70;99.90
1049;DHT22;513;51.444;7.196;2023-03-01T10:47:17;3.50;99.90
1049;DHT22;513;51.444;7.196;2023-03-01T10:49:54;3.50;99.90
1049;DHT22;513;51.444;7.196;2023-03-01T10:52:24;3.30;99.90
1049;DHT22;513;51.444;7.196;2023-03-01T10:54:54;3.40;99.90
1049;DHT22;513;51.444;7.196;2023-03-01T10:57:36;3.50;99.90
1049;DHT22;513;51.444;7.196;2023-03-01T11:00:22;3.60;99.90
1049;DHT22;513;51.444;7.196;2023-03-01T11:03:01;3.70;99.90
1049;DHT22;513;51.444;7.196;2023-03-01T11:05:29;3.70;99.90
1049;DHT22;513;51.444;7.196;2023-03-01T11:08:02;3.80;99.90
1049;DHT22;513;51.444;7.196;2023-03-01T11:10:31;4.00;99.90
1049;DHT22;513;51.444;7.196;2023-03-01T11:13:13;4.10;99.90
1049;DHT22;513;51.444;7.196;2023-03-01T11:15:41;4.20;99.90
1049;DHT22;513;51.444;7.196;2023-03-01T11:18:19;4.10;99.90
1049;DHT22;513;51.444;7.196;2023-03-01T11:20:46;4.20;99.90
1049;DHT22;513;51.444;7.196;2023-03-01T11:23:15;4.10;99.90
1049;DHT22;513;51.444;7.196;2023-03-01T11:25:46;4.20;99.90
1049;DHT22;513;51.444;7.196;2023-03-01T11:28:16;4.40;99.90
1049;DHT22;513;51.444;7.196;2023-03-01T11:30:50;4.50;99.90
1049;DHT22;513;51.444;7.196;2023-03-01T11:33:23;4.50;99.90
1049;DHT22;513;51.444;7.196;2023-03-01T11:35:57;4.30;99.90
1049;DHT22;513;51.444;7.196;2023-03-01T11:38:29;4.20;99.90
1049;DHT22;513;51.444;7.196;2023-03-01T11:41:00;4.40;99.90
1049;DHT22;513;51.444;7.196;2023-03-01T11:43:33;4.20;99.90
1049;DHT22;513;51.444;7.196;2023-03-01T11:49:16;4.50;99.90
1049;DHT22;513;51.444;7.196;2023-03-01T11:51:49;4.60;99.90
1049;DHT22;513;51.444;7.196;2023-03-01T11:54:29;4.80;99.90
1049;DHT22;513;51.444;7.196;2023-03-01T11:57:00;4.90;99.90
1049;DHT22;513;51.444;7.196;2023-03-01T12:00:13;4.90;99.90
1049;DHT22;513;51.444;7.196;2023-03-01T12:03:10;4.70;99.90
1049;DHT22;513;51.444;7.196;2023-03-01T12:06:01;4.90;99.90
1049;DHT22;513;51.444;7.196;2023-03-01T12:08:35;5.00;99.90
1049;DHT22;513;51.444;7.196;2023-03-01T12:11:15;5.00;99.90
1049;DHT22;513;51.444;7.196;2023-03-01T12:14:04;4.90;99.90
1049;DHT22;513;51.444;7.196;2023-03-01T12:16:56;4.80;99.90
1049;DHT22;513;51.444;7.196;2023-03-01T12:19:37;5.00;99.90
1049;DHT22;513;51.444;7.196;2023-03-01T12:22:17;5.20;99.90
1049;DHT22;513;51.444;7.196;2023-03-01T12:25:05;5.20;99.90
1049;DHT22;513;51.444;7.196;2023-03-01T12:27:51;5.30;99.90
1049;DHT22;513;51.444;7.196;2023-03-01T12:30:29;5.10;99.90
1049;DHT22;513;51.444;7.196;2023-03-01T12:33:07;5.20;99.90
1049;DHT22;513;51.444;7.196;2023-03-01T12:38:41;5.10;99.90
1049;DHT22;513;51.444;7.196;2023-03-01T12:41:40;5.20;99.90
1049;DHT22;513;51.444;7.196;2023-03-01T12:44:31;5.30;99.90
1049;DHT22;513;51.444;7.196;2023-03-01T12:47:11;5.30;99.90
1049;DHT22;513;51.444;7.196;2023-03-01T12:49:42;5.20;99.90
1049;DHT22;513;51.444;7.196;2023-03-01T12:52:14;5.30;99.90
1049;DHT22;513;51.444;7.196;2023-03-01T12:54:43;5.40;99.90
1049;DHT22;513;51.444;7.196;2023-03-01T12:57:17;5.40;99.90
1049;DHT22;513;51.444;7.196;2023-03-01T13:00:00;5.20;99.90
1049;DHT22;513;51.444;7.196;2023-03-01T13:02:36;5.40;99.90
1049;DHT22;513;51.444;7.196;2023-03-01T13:05:20;5.40;99.90
1049;DHT22;513;51.444;7.196;2023-03-01T13:07:55;5.50;99.90
1049;DHT22;513;51.444;7.196;2023-03-01T13:10:28;5.60;99.90
1049;DHT22;513;51.444;7.196;2023-03-01T13:13:11;5.50;99.90
1049;DHT22;513;51.444;7.196;2023-03-01T13:15:40;5.60;99.90
1049;DHT22;513;51.444;7.196;2023-03-01T13:18:31;5.60;99.90
1049;DHT22;513;51.444;7.196;2023-03-01T13:21:00;5.70;99.90
1049;DHT22;513;51.444;7.196;2023-03-01T13:23:30;5.60;99.90
1049;DHT22;513;51.444;7.196;2023-03-01T13:26:04;5.50;99.90
1049;DHT22;513;51.444;7.196;2023-03-01T13:28:40;5.50;99.90
1049;DHT22;513;51.444;7.196;2023-03-01T13:31:10;5.40;99.90
1049;DHT22;513;51.444;7.196;2023-03-01T13:33:43;5.50;99.90
1049;DHT22;513;51.444;7.196;2023-03-01T13:36:25;5.40;99.90
1049;DHT22;513;51.444;7.196;2023-03-01T13:39:02;5.50;99.90
1049;DHT22;513;51.444;7.196;2023-03-01T13:41:48;5.70;99.90
1049;DHT22;513;51.444;7.196;2023-03-01T13:44:22;5.70;99.90
1049;DHT22;513;51.444;7.196;2023-03-01T13:46:52;5.70;99.90
1049;DHT22;513;51.444;7.196;2023-03-01T13:49:21;5.70;99.90
1049;DHT22;513;51.444;7.196;2023-03-01T13:51:50;5.80;99.90
1049;DHT22;513;51.444;7.196;2023-03-01T13:54:26;5.80;99.90
1049;DHT22;513;51.444;7.196;2023-03-01T13:56:56;6.10;99.90
1049;DHT22;513;51.444;7.196;2023-03-01T13:59:24;5.90;99.90
1049;DHT22;513;51.444;7.196;2023-03-01T14:01:56;5.90;99.90
1049;DHT22;513;51.444;7.196;2023-03-01T14:04:25;6.00;99.90
1049;DHT22;513;51.444;7.196;2023-03-01T14:07:09;5.90;99.90
1049;DHT22;513;51.444;7.196;2023-03-01T14:09:39;5.90;99.90
1049;DHT22;513;51.444;7.196;2023-03-01T14:12:20;5.90;99.90
1049;DHT22;513;51.444;7.196;2023-03-01T14:14:56;6.00;99.90
1049;DHT22;513;51.444;7.196;2023-03-01T14:17:43;6.20;99.90
1049;DHT22;513;51.444;7.196;2023-03-01T14:20:17;6.30;99.90
1049;DHT22;513;51.444;7.196;2023-03-01T14:22:45;6.40;99.90
1049;DHT22;513;51.444;7.196;2023-03-01T14:25:21;6.30;99.90
1049;DHT22;513;51.444;7.196;2023-03-01T14:27:54;6.10;99.90
1049;DHT22;513;51.444;7.196;2023-03-01T14:30:23;6.00;99.90
1049;DHT22;513;51.444;7.196;2023-03-01T14:32:56;6.20;99.90
1049;DHT22;513;51.444;7.196;2023-03-01T14:35:24;6.20;99.90
1049;DHT22;513;51.444;7.196;2023-03-01T14:37:51;6.20;99.90
1049;DHT22;513;51.444;7.196;2023-03-01T14:40:28;6.40;99.90
1049;DHT22;513;51.444;7.196;2023-03-01T14:42:58;6.30;99.90
1049;DHT22;513;51.444;7.196;2023-03-01T14:45:27;6.20;99.90
1049;DHT22;513;51.444;7.196;2023-03-01T14:47:55;6.10;99.90
1049;DHT22;513;51.444;7.196;2023-03-01T14:50:27;6.00;99.90
1049;DHT22;513;51.444;7.196;2023-03-01T14:52:56;5.90;99.90
1049;DHT22;513;51.444;7.196;2023-03-01T14:55:28;6.00;99.90
1049;DHT22;513;51.444;7.196;2023-03-01T14:57:57;6.00;99.90
1049;DHT22;513;51.444;7.196;2023-03-01T15:00:26;5.80;99.90
1049;DHT22;513;51.444;7.196;2023-03-01T15:02:55;5.90;99.90
1049;DHT22;513;51.444;7.196;2023-03-01T15:05:27;5.80;99.90
1049;DHT22;513;51.444;7.196;2023-03-01T15:07:57;5.90;99.90
1049;DHT22;513;51.444;7.196;2023-03-01T15:10:28;5.80;99.90
1049;DHT22;513;51.444;7.196;2023-03-01T15:12:55;5.90;99.90
1049;DHT22;513;51.444;7.196;2023-03-01T15:15:34;5.80;99.90
1049;DHT22;513;51.444;7.196;2023-03-01T15:18:04;5.90;99.90
1049;DHT22;513;51.444;7.196;2023-03-01T15:20:33;6.00;99.90
1049;DHT22;513;51.444;7.196;2023-03-01T15:23:02;6.00;99.90
1049;DHT22;513;51.444;7.196;2023-03-01T15:25:32;6.00;99.90
1049;DHT22;513;51.444;7.196;2023-03-01T15:28:01;5.90;99.90
1049;DHT22;513;51.444;7.196;2023-03-01T15:30:30;5.80;99.90
1049;DHT22;513;51.444;7.196;2023-03-01T15:33:20;5.80;99.90
1049;DHT22;513;51.444;7.196;2023-03-01T15:35:48;5.80;99.90
1049;DHT22;513;51.444;7.196;2023-03-01T15:38:34;5.70;99.90
1049;DHT22;513;51.444;7.196;2023-03-01T15:41:21;5.60;99.90
1049;DHT22;513;51.444;7.196;2023-03-01T15:43:49;5.70;99.90
1049;DHT22;513;51.444;7.196;2023-03-01T15:46:22;5.60;99.90
1049;DHT22;513;51.444;7.196;2023-03-01T15:48:52;5.70;99.90
1049;DHT22;513;51.444;7.196;2023-03-01T15:51:27;5.70;99.90
1049;DHT22;513;51.444;7.196;2023-03-01T15:53:56;5.80;99.90
1049;DHT22;513;51.444;7.196;2023-03-01T15:56:26;5.90;99.90
1049;DHT22;513;51.444;7.196;2023-03-01T15:58:53;5.90;99.90
1049;DHT22;513;51.444;7.196;2023-03-01T16:01:23;5.80;99.90
1049;DHT22;513;51.444;7.196;2023-03-01T16:03:50;5.70;99.90
1049;DHT22;513;51.444;7.196;2023-03-01T16:06:16;5.60;99.90
1049;DHT22;513;51.444;7.196;2023-03-01T16:08:43;5.60;99.90
1049;DHT22;513;51.444;7.196;2023-03-01T16:11:15;5.60;99.90
1049;DHT22;513;51.444;7.196;2023-03-01T16:13:43;5.60;99.90
1049;DHT22;513;51.444;7.196;2023-03-01T16:16:11;5.60;99.90
1049;DHT22;513;51.444;7.196;2023-03-01T16:18:41;5.60;99.90
1049;DHT22;513;51.444;7.196;2023-03-01T16:21:11;5.50;99.90
1049;DHT22;513;51.444;7.196;2023-03-01T16:23:38;5.30;99.90
1049;DHT22;513;51.444;7.196;2023-03-01T16:26:05;5.30;99.90
1049;DHT22;513;51.444;7.196;2023-03-01T16:28:32;5.30;99.90
1049;DHT22;513;51.444;7.196;2023-03-01T16:31:00;5.30;99.90
1049;DHT22;513;51.444;7.196;2023-03-01T16:33:27;5.20;99.90
1049;DHT22;513;51.444;7.196;2023-03-01T16:35:54;5.20;99.90
1049;DHT22;513;51.444;7.196;2023-03-01T16:38:21;5.20;99.90
1049;DHT22;513;51.444;7.196;2023-03-01T16:40:49;5.10;99.90
1049;DHT22;513;51.444;7.196;2023-03-01T16:43:16;5.10;99.90
1049;DHT22;513;51.444;7.196;2023-03-01T16:45:43;5.10;99.90
1049;DHT22;513;51.444;7.196;2023-03-01T16:48:13;5.10;99.90
1049;DHT22;513;51.444;7.196;2023-03-01T16:50:39;5.10;99.90
1049;DHT22;513;51.444;7.196;2023-03-01T16:53:06;5.00;99.90
1049;DHT22;513;51.444;7.196;2023-03-01T16:55:33;5.00;99.90
1049;DHT22;513;51.444;7.196;2023-03-01T16:58:00;5.00;99.90
1049;DHT22;513;51.444;7.196;2023-03-01T17:00:26;4.90;99.90